Dantes — DEIU — position and weather

sailwx.info

Track history (hours):
 
Tides and Currents Weather Stations Pressure Air Temp Water Temp Dewpoint Dewpoint Depression Visibility Wind Speed Wind Dir Waves Ship Positions

Dantes

Last reported at 2018-May-09 23:45 UTC. Time now 2018-Jun-20 17:21 UTC.
Position N 17°49' W 061°56'.
Warning: this ship's position is 41 days out of date.

Length 14 m.

Type: Pleasure craft. MMSI: 211190770.

Date/timePositionNaut miles runAvg speedWind from/ knotsBaromVisibWave heightAir tempDewpointWater temp
2018-May-09 23:45N 17°49' W 061°56'3 8.3
2018-May-09 23:27N 17°46' W 061°56'4 8.0
2018-May-09 22:56N 17°42' W 061°55'4 8.2
2018-May-09 22:30N 17°39' W 061°54'4 8.4
2018-May-09 22:00N 17°35' W 061°53'4 8.1
2018-May-09 21:30N 17°31' W 061°51'4 8.3
2018-May-09 21:00N 17°27' W 061°50'4 8.6
2018-May-09 20:30N 17°23' W 061°48'4 8.6
2018-May-09 20:00N 17°19' W 061°46'4 8.7
2018-May-09 19:30N 17°15' W 061°44'4 8.8
2018-May-09 19:00N 17°11' W 061°42'4 8.5
2018-May-09 18:29N 17°07' W 061°40'4 7.8
2018-May-09 18:00N 17°04' W 061°40'3 5.1
2018-May-09 17:30N 17°02' W 061°41'2 4.7
2018-May-09 17:00N 17°00' W 061°43'2 4.5
2018-May-09 16:30N 16°59' W 061°45'0 0.8
2018-May-09 16:00N 16°60' W 061°46'0 0.3
2018-May-09 15:30N 16°60' W 061°46'1 1.6
2018-May-09 15:00N 16°60' W 061°46'1 2.0
2018-May-09 14:30N 17°01' W 061°46'0 0.0
2018-May-09 14:00N 17°01' W 061°46'0 0.0
2018-May-09 11:44N 17°01' W 061°46'0 0.0
2018-May-09 11:29N 17°01' W 061°46'0 0.0
2018-May-09 10:59N 17°01' W 061°46'0 0.0
2018-May-09 10:29N 17°01' W 061°46'0 0.0
2018-May-09 09:59N 17°01' W 061°46'0 0.0
2018-May-09 09:28N 17°01' W 061°46'0 0.0
2018-May-09 08:58N 17°01' W 061°46'0 0.0
2018-May-09 08:28N 17°01' W 061°46'0 0.0
2018-May-09 07:58N 17°01' W 061°46'0 0.0
2018-May-09 07:28N 17°01' W 061°46'0 0.0
2018-May-09 06:58N 17°01' W 061°46'0 0.0
2018-May-09 06:28N 17°01' W 061°46'0 0.0
2018-May-09 05:58N 17°01' W 061°46'0 0.0
2018-May-09 05:28N 17°01' W 061°46'0 0.0
2018-May-09 04:58N 17°01' W 061°46'0 0.0
2018-May-09 04:28N 17°01' W 061°46'0 0.0
2018-May-09 03:58N 17°01' W 061°46'0 0.0
2018-May-09 03:28N 17°01' W 061°46'0 0.0
2018-May-09 02:58N 17°01' W 061°46'0 0.0
2018-May-09 02:28N 17°01' W 061°46'0 0.0
2018-May-09 01:58N 17°01' W 061°46'0 0.0
2018-May-09 01:28N 17°01' W 061°46'0 0.0
2018-May-09 00:58N 17°01' W 061°46'0 0.0
2018-May-09 00:28N 17°01' W 061°46'0 0.0
2018-May-08 23:58N 17°01' W 061°46'0 0.0
2018-May-08 23:28N 17°01' W 061°46'0 0.0
2018-May-08 22:58N 17°01' W 061°46'0 0.0
2018-May-08 22:28N 17°01' W 061°46'0 0.0
2018-May-08 21:58N 17°01' W 061°46'0 0.0
2018-May-08 21:28N 17°01' W 061°46'0 0.0
2018-May-08 20:58N 17°01' W 061°46'0 0.0
2018-May-08 20:28N 17°01' W 061°46'0 0.0
2018-May-08 19:58N 17°01' W 061°46'0 0.0
2018-May-08 19:28N 17°01' W 061°46'0 0.0
2018-May-08 19:00N 17°01' W 061°46'0 0.0
2018-May-08 18:30N 17°01' W 061°46'0 0.0
2018-May-08 18:00N 17°01' W 061°46'0 0.0
2018-May-07 22:56N 17°01' W 061°46'0 0.2
2018-May-07 22:30N 17°01' W 061°46'2 3.5
2018-May-07 21:58N 16°59' W 061°48'2 3.6
2018-May-07 21:30N 16°59' W 061°49'2 3.5
2018-May-07 20:59N 17°01' W 061°50'0 0.0
2018-May-07 20:26N 17°01' W 061°50'0 0.0
2018-May-07 19:56N 17°01' W 061°50'0 0.0
2018-May-07 19:28N 17°01' W 061°50'3 6.0
2018-May-07 19:00N 16°58' W 061°49'1 2.2
2018-May-07 18:30N 16°58' W 061°48'1 2.7
2018-May-07 18:00N 16°60' W 061°48'2 3.1
2018-May-07 17:28N 17°01' W 061°46'  
2018-May-04 18:01N 17°01' W 061°46'0 0.0
2018-May-04 17:58N 17°01' W 061°46'0 0.2
2018-May-04 17:28N 17°01' W 061°46'2 4.1
2018-May-04 17:00N 16°59' W 061°46'3 6.1
2018-May-04 16:30N 16°59' W 061°42'2 4.1
2018-May-04 16:00N 17°01' W 061°42'1 2.5
2018-May-04 15:30N 16°60' W 061°42'2 4.7
2018-May-04 15:00N 16°59' W 061°44'2 4.7
2018-May-04 14:30N 16°60' W 061°46'1 1.2
2018-May-04 14:00N 16°59' W 061°46'1 1.8
2018-May-04 13:30N 17°00' W 061°47'1 1.4
2018-May-04 13:00N 17°01' W 061°47'0 0.0
2018-May-03 20:49N 17°01' W 061°46'0 0.0
2018-May-03 20:28N 17°01' W 061°46'0 0.0
2018-May-03 19:58N 17°01' W 061°46'0 0.0
2018-May-03 19:28N 17°01' W 061°46'0 0.0
2018-May-03 19:00N 17°01' W 061°46'1 2.5
2018-May-03 18:30N 16°60' W 061°47'3 5.7
2018-May-03 18:00N 16°59' W 061°50'2 4.7
2018-May-03 17:30N 16°60' W 061°52'2 4.9
2018-May-03 17:00N 16°60' W 061°50'2 3.6
2018-May-03 16:30N 16°60' W 061°48'0 0.8
2018-May-03 16:00N 16°60' W 061°48'0 0.7
2018-May-03 15:30N 17°00' W 061°48'2 3.0
2018-May-03 15:00N 17°01' W 061°47'0 0.2
2018-May-03 12:46N 17°01' W 061°46'0 0.0
2018-May-03 12:30N 17°01' W 061°46'0 0.0
2018-May-01 19:36N 17°01' W 061°46'0 0.1
2018-May-01 19:30N 17°01' W 061°46'0 0.4
2018-May-01 19:00N 17°01' W 061°46'2 4.0
2018-May-01 18:30N 16°59' W 061°45'3 6.2
2018-May-01 18:00N 16°59' W 061°42'2 3.3
2018-May-01 17:30N 17°00' W 061°43'2 4.5
2018-May-01 17:00N 16°59' W 061°45'2 3.8
2018-May-01 16:29N 16°59' W 061°47'1 2.5
2018-May-01 16:00N 16°60' W 061°46'3 6.6
2018-May-01 15:30N 17°01' W 061°42'3 5.3
2018-May-01 15:00N 16°60' W 061°45'2 3.8
2018-May-01 14:30N 16°60' W 061°47'0 0.2
2018-May-01 14:00N 16°60' W 061°47'0 0.4
2018-May-01 13:30N 16°60' W 061°47'1 2.2
2018-May-01 12:59N 17°01' W 061°46'0 0.0
2018-May-01 12:30N 17°01' W 061°46'0 0.0
2018-Apr-30 19:47N 17°01' W 061°46'0 0.4
2018-Apr-30 19:30N 17°01' W 061°46'2 4.3
2018-Apr-30 19:00N 17°00' W 061°48'2 4.7
2018-Apr-30 18:30N 16°60' W 061°51'3 6.2
2018-Apr-30 18:00N 16°60' W 061°48'1 1.3
2018-Apr-30 17:29N 17°00' W 061°48'1 1.5
2018-Apr-30 17:00N 16°59' W 061°48'1 2.1
2018-Apr-30 16:30N 17°00' W 061°48'2 2.9
2018-Apr-30 15:55N 16°60' W 061°49'1 2.9
2018-Apr-30 15:30N 16°59' W 061°51'2 4.0
2018-Apr-30 15:00N 16°60' W 061°49'1 1.7
2018-Apr-30 14:31N 17°00' W 061°48'0 0.5
2018-Apr-30 14:00N 16°60' W 061°48'1 1.3
2018-Apr-30 13:30N 16°59' W 061°48'0 0.7
2018-Apr-30 13:00N 16°60' W 061°47'  
Track history (hours):
 
Tides and Currents Weather Stations Pressure Air Temp Water Temp Dewpoint Dewpoint Depression Visibility Wind Speed Wind Dir Waves Ship Positions

Dantes

Last reported at 2018-May-09 23:45 UTC. Time now 2018-Jun-20 17:21 UTC.
Position N 17°49' W 061°56'.
Warning: this ship's position is 41 days out of date.

Length 14 m.

Type: Pleasure craft. MMSI: 211190770.

Date/timePositionNaut miles runAvg speedWind from/ knotsBaromVisibWave heightAir tempDewpointWater temp
2018-May-09 23:45N 17°49' W 061°56'3 8.3
2018-May-09 23:27N 17°46' W 061°56'4 8.0
2018-May-09 22:56N 17°42' W 061°55'4 8.2
2018-May-09 22:30N 17°39' W 061°54'4 8.4
2018-May-09 22:00N 17°35' W 061°53'4 8.1
2018-May-09 21:30N 17°31' W 061°51'4 8.3
2018-May-09 21:00N 17°27' W 061°50'4 8.6
2018-May-09 20:30N 17°23' W 061°48'4 8.6
2018-May-09 20:00N 17°19' W 061°46'4 8.7
2018-May-09 19:30N 17°15' W 061°44'4 8.8
2018-May-09 19:00N 17°11' W 061°42'4 8.5
2018-May-09 18:29N 17°07' W 061°40'4 7.8
2018-May-09 18:00N 17°04' W 061°40'3 5.1
2018-May-09 17:30N 17°02' W 061°41'2 4.7
2018-May-09 17:00N 17°00' W 061°43'2 4.5
2018-May-09 16:30N 16°59' W 061°45'0 0.8
2018-May-09 16:00N 16°60' W 061°46'0 0.3
2018-May-09 15:30N 16°60' W 061°46'1 1.6
2018-May-09 15:00N 16°60' W 061°46'1 2.0
2018-May-09 14:30N 17°01' W 061°46'0 0.0
2018-May-09 14:00N 17°01' W 061°46'0 0.0
2018-May-09 11:44N 17°01' W 061°46'0 0.0
2018-May-09 11:29N 17°01' W 061°46'0 0.0
2018-May-09 10:59N 17°01' W 061°46'0 0.0
2018-May-09 10:29N 17°01' W 061°46'0 0.0
2018-May-09 09:59N 17°01' W 061°46'0 0.0
2018-May-09 09:28N 17°01' W 061°46'0 0.0
2018-May-09 08:58N 17°01' W 061°46'0 0.0
2018-May-09 08:28N 17°01' W 061°46'0 0.0
2018-May-09 07:58N 17°01' W 061°46'0 0.0
2018-May-09 07:28N 17°01' W 061°46'0 0.0
2018-May-09 06:58N 17°01' W 061°46'0 0.0
2018-May-09 06:28N 17°01' W 061°46'0 0.0
2018-May-09 05:58N 17°01' W 061°46'0 0.0
2018-May-09 05:28N 17°01' W 061°46'0 0.0
2018-May-09 04:58N 17°01' W 061°46'0 0.0
2018-May-09 04:28N 17°01' W 061°46'0 0.0
2018-May-09 03:58N 17°01' W 061°46'0 0.0
2018-May-09 03:28N 17°01' W 061°46'0 0.0
2018-May-09 02:58N 17°01' W 061°46'0 0.0
2018-May-09 02:28N 17°01' W 061°46'0 0.0
2018-May-09 01:58N 17°01' W 061°46'0 0.0
2018-May-09 01:28N 17°01' W 061°46'0 0.0
2018-May-09 00:58N 17°01' W 061°46'0 0.0
2018-May-09 00:28N 17°01' W 061°46'0 0.0
2018-May-08 23:58N 17°01' W 061°46'0 0.0
2018-May-08 23:28N 17°01' W 061°46'0 0.0
2018-May-08 22:58N 17°01' W 061°46'0 0.0
2018-May-08 22:28N 17°01' W 061°46'0 0.0
2018-May-08 21:58N 17°01' W 061°46'0 0.0
2018-May-08 21:28N 17°01' W 061°46'0 0.0
2018-May-08 20:58N 17°01' W 061°46'0 0.0
2018-May-08 20:28N 17°01' W 061°46'0 0.0
2018-May-08 19:58N 17°01' W 061°46'0 0.0
2018-May-08 19:28N 17°01' W 061°46'0 0.0
2018-May-08 19:00N 17°01' W 061°46'0 0.0
2018-May-08 18:30N 17°01' W 061°46'0 0.0
2018-May-08 18:00N 17°01' W 061°46'0 0.0
2018-May-07 22:56N 17°01' W 061°46'0 0.2
2018-May-07 22:30N 17°01' W 061°46'2 3.5
2018-May-07 21:58N 16°59' W 061°48'2 3.6
2018-May-07 21:30N 16°59' W 061°49'2 3.5
2018-May-07 20:59N 17°01' W 061°50'0 0.0
2018-May-07 20:26N 17°01' W 061°50'0 0.0
2018-May-07 19:56N 17°01' W 061°50'0 0.0
2018-May-07 19:28N 17°01' W 061°50'3 6.0
2018-May-07 19:00N 16°58' W 061°49'1 2.2
2018-May-07 18:30N 16°58' W 061°48'1 2.7
2018-May-07 18:00N 16°60' W 061°48'2 3.1
2018-May-07 17:28N 17°01' W 061°46'  
2018-May-04 18:01N 17°01' W 061°46'0 0.0
2018-May-04 17:58N 17°01' W 061°46'0 0.2
2018-May-04 17:28N 17°01' W 061°46'2 4.1
2018-May-04 17:00N 16°59' W 061°46'3 6.1
2018-May-04 16:30N 16°59' W 061°42'2 4.1
2018-May-04 16:00N 17°01' W 061°42'1 2.5
2018-May-04 15:30N 16°60' W 061°42'2 4.7
2018-May-04 15:00N 16°59' W 061°44'2 4.7
2018-May-04 14:30N 16°60' W 061°46'1 1.2
2018-May-04 14:00N 16°59' W 061°46'1 1.8
2018-May-04 13:30N 17°00' W 061°47'1 1.4
2018-May-04 13:00N 17°01' W 061°47'0 0.0
2018-May-03 20:49N 17°01' W 061°46'0 0.0
2018-May-03 20:28N 17°01' W 061°46'0 0.0
2018-May-03 19:58N 17°01' W 061°46'0 0.0
2018-May-03 19:28N 17°01' W 061°46'0 0.0
2018-May-03 19:00N 17°01' W 061°46'1 2.5
2018-May-03 18:30N 16°60' W 061°47'3 5.7
2018-May-03 18:00N 16°59' W 061°50'2 4.7
2018-May-03 17:30N 16°60' W 061°52'2 4.9
2018-May-03 17:00N 16°60' W 061°50'2 3.6
2018-May-03 16:30N 16°60' W 061°48'0 0.8
2018-May-03 16:00N 16°60' W 061°48'0 0.7
2018-May-03 15:30N 17°00' W 061°48'2 3.0
2018-May-03 15:00N 17°01' W 061°47'0 0.2
2018-May-03 12:46N 17°01' W 061°46'0 0.0
2018-May-03 12:30N 17°01' W 061°46'0 0.0
2018-May-01 19:36N 17°01' W 061°46'0 0.1
2018-May-01 19:30N 17°01' W 061°46'0 0.4
2018-May-01 19:00N 17°01' W 061°46'2 4.0
2018-May-01 18:30N 16°59' W 061°45'3 6.2
2018-May-01 18:00N 16°59' W 061°42'2 3.3
2018-May-01 17:30N 17°00' W 061°43'2 4.5
2018-May-01 17:00N 16°59' W 061°45'2 3.8
2018-May-01 16:29N 16°59' W 061°47'1 2.5
2018-May-01 16:00N 16°60' W 061°46'3 6.6
2018-May-01 15:30N 17°01' W 061°42'3 5.3
2018-May-01 15:00N 16°60' W 061°45'2 3.8
2018-May-01 14:30N 16°60' W 061°47'0 0.2
2018-May-01 14:00N 16°60' W 061°47'0 0.4
2018-May-01 13:30N 16°60' W 061°47'1 2.2
2018-May-01 12:59N 17°01' W 061°46'0 0.0
2018-May-01 12:30N 17°01' W 061°46'0 0.0
2018-Apr-30 19:47N 17°01' W 061°46'0 0.4
2018-Apr-30 19:30N 17°01' W 061°46'2 4.3
2018-Apr-30 19:00N 17°00' W 061°48'2 4.7
2018-Apr-30 18:30N 16°60' W 061°51'3 6.2
2018-Apr-30 18:00N 16°60' W 061°48'1 1.3
2018-Apr-30 17:29N 17°00' W 061°48'1 1.5
2018-Apr-30 17:00N 16°59' W 061°48'1 2.1
2018-Apr-30 16:30N 17°00' W 061°48'2 2.9
2018-Apr-30 15:55N 16°60' W 061°49'1 2.9
2018-Apr-30 15:30N 16°59' W 061°51'2 4.0
2018-Apr-30 15:00N 16°60' W 061°49'1 1.7
2018-Apr-30 14:31N 17°00' W 061°48'0 0.5
2018-Apr-30 14:00N 16°60' W 061°48'1 1.3
2018-Apr-30 13:30N 16°59' W 061°48'0 0.7
2018-Apr-30 13:00N 16°60' W 061°47'  

Dump ship's entire track history